createdAt,value
2023-01-21T00:04:38.467Z,15.67
2023-01-21T00:09:37.026Z,15.17
2023-01-21T00:14:35.566Z,15.13
2023-01-21T00:19:35.496Z,15.93
2023-01-21T00:24:34.050Z,9.57
2023-01-21T00:29:32.599Z,17.47
2023-01-21T00:34:31.144Z,13.87
2023-01-21T00:39:31.049Z,12.30
2023-01-21T00:44:29.595Z,15.40
2023-01-21T00:49:28.144Z,13.60
2023-01-21T00:54:26.798Z,20.17
2023-01-21T00:59:27.633Z,22.10
2023-01-21T01:04:26.086Z,15.03
2023-01-21T01:09:24.622Z,17.90
2023-01-21T01:14:23.368Z,11.50
2023-01-21T01:19:23.282Z,14.00
2023-01-21T01:24:21.850Z,18.33
2023-01-21T01:29:20.582Z,16.97
2023-01-21T01:34:18.816Z,16.70
2023-01-21T01:39:18.676Z,17.47
2023-01-21T01:44:56.311Z,15.63
2023-01-21T01:49:55.017Z,13.80
2023-01-21T01:54:58.824Z,16.20
2023-01-21T01:59:58.427Z,17.07
2023-01-21T02:05:00.134Z,16.60
2023-01-21T02:10:00.735Z,15.90
2023-01-21T02:14:59.357Z,16.00
2023-01-21T02:20:24.019Z,14.70
2023-01-21T02:25:52.246Z,11.83
2023-01-21T02:31:29.973Z,14.47
2023-01-21T02:37:18.981Z,14.17
2023-01-21T02:42:26.375Z,14.30
2023-01-21T02:47:30.522Z,15.10
2023-01-21T02:52:30.245Z,17.20
2023-01-21T02:57:40.224Z,14.80
2023-01-21T03:03:02.171Z,15.53
2023-01-21T03:08:08.026Z,14.57
2023-01-21T03:13:14.347Z,15.50
2023-01-21T03:18:19.968Z,15.00
2023-01-21T03:23:21.177Z,12.30
2023-01-21T03:28:25.119Z,10.80
2023-01-21T03:33:24.415Z,10.30
2023-01-21T03:38:29.889Z,12.33
2023-01-21T03:43:29.851Z,15.77
2023-01-21T03:48:34.384Z,16.60
2023-01-21T03:53:32.648Z,17.30
2023-01-21T03:58:32.633Z,17.30
2023-01-21T04:03:31.112Z,16.43
2023-01-21T04:08:29.909Z,16.63
2023-01-21T04:13:28.974Z,15.90
2023-01-21T04:18:28.803Z,17.60
2023-01-21T04:23:27.438Z,17.73
2023-01-21T04:28:25.595Z,18.47
2023-01-21T04:33:24.489Z,17.33
2023-01-21T04:38:24.359Z,18.30
2023-01-21T04:43:22.860Z,18.33
2023-01-21T04:48:21.305Z,18.20
2023-01-21T04:53:19.824Z,18.40
2023-01-21T04:58:19.677Z,16.47
2023-01-21T05:03:18.339Z,17.10
2023-01-21T05:08:16.818Z,15.83
2023-01-21T05:13:15.287Z,16.80
2023-01-21T05:18:15.280Z,16.97
2023-01-21T05:23:13.801Z,15.63
2023-01-21T05:28:12.546Z,15.77
2023-01-21T05:33:10.681Z,14.83
2023-01-21T05:38:10.840Z,17.70
2023-01-21T05:43:09.296Z,17.43
2023-01-21T05:48:08.116Z,17.63
2023-01-21T05:53:06.665Z,13.30
2023-01-21T05:58:06.830Z,15.30
2023-01-21T06:03:05.843Z,15.13
2023-01-21T06:08:04.450Z,17.13
2023-01-21T06:13:03.053Z,17.50
2023-01-21T06:18:03.134Z,17.67
2023-01-21T06:23:03.262Z,18.93
2023-01-21T06:28:02.157Z,18.30
2023-01-21T06:33:01.170Z,17.83
2023-01-21T06:38:01.023Z,16.83
2023-01-21T06:42:59.639Z,15.73
2023-01-21T06:47:57.805Z,10.83
2023-01-21T06:52:56.840Z,16.70
2023-01-21T06:57:56.715Z,15.40
2023-01-21T07:02:58.028Z,16.70
2023-01-21T07:07:56.664Z,14.33
2023-01-21T07:12:57.036Z,15.80
2023-01-21T07:17:55.604Z,14.47
2023-01-21T07:22:54.079Z,18.93
2023-01-21T07:27:52.973Z,15.40
2023-01-21T07:32:52.983Z,14.97
2023-01-21T07:37:51.532Z,16.43
2023-01-21T07:42:53.442Z,13.77
2023-01-21T07:47:53.601Z,16.20
2023-01-21T07:52:54.566Z,17.80
2023-01-21T07:57:53.447Z,16.40
2023-01-21T08:02:54.031Z,15.93
2023-01-21T08:07:53.475Z,16.47
2023-01-21T08:12:52.795Z,15.90
2023-01-21T08:17:51.317Z,15.13
2023-01-21T08:22:51.190Z,14.00
2023-01-21T08:27:49.933Z,15.97
2023-01-21T08:32:48.144Z,13.93
2023-01-21T08:37:46.697Z,16.63
2023-01-21T08:42:46.556Z,18.70
2023-01-21T08:47:45.080Z,15.13
2023-01-21T08:52:43.586Z,16.43
2023-01-21T08:57:42.137Z,17.00
2023-01-21T09:02:42.186Z,16.80
2023-01-21T09:07:40.746Z,17.70
2023-01-21T09:12:41.177Z,15.63
2023-01-21T09:17:39.449Z,15.57
2023-01-21T09:22:39.334Z,12.03
2023-01-21T09:27:37.670Z,15.73
2023-01-21T09:32:35.855Z,15.03
2023-01-21T09:37:35.150Z,14.73
2023-01-21T09:42:35.429Z,17.70
2023-01-21T09:47:38.387Z,15.60
2023-01-21T09:52:41.789Z,15.10
2023-01-21T09:57:56.372Z,16.73
2023-01-21T10:03:04.783Z,13.70
2023-01-21T10:08:13.802Z,14.70
2023-01-21T10:13:32.145Z,17.53
2023-01-21T10:18:34.026Z,16.47
2023-01-21T10:23:36.057Z,15.17
2023-01-21T10:28:39.729Z,15.03
2023-01-21T10:33:37.912Z,14.87
2023-01-21T10:38:41.693Z,17.03
2023-01-21T10:43:47.456Z,16.10
2023-01-21T10:48:55.339Z,14.10
2023-01-21T10:53:57.799Z,16.37
2023-01-21T10:59:18.565Z,16.00
2023-01-21T11:04:19.350Z,17.20
2023-01-21T11:09:17.591Z,18.43
2023-01-21T11:14:17.792Z,17.63
2023-01-21T11:19:18.991Z,13.90
2023-01-21T11:24:24.362Z,16.40
2023-01-21T11:29:26.336Z,13.87
2023-01-21T11:34:25.087Z,14.40
2023-01-21T11:39:26.087Z,15.40
2023-01-21T11:44:26.420Z,11.90
2023-01-21T11:49:27.557Z,15.27
2023-01-21T11:54:26.503Z,11.77
2023-01-21T11:59:33.917Z,13.03
2023-01-21T12:04:34.415Z,12.47
2023-01-21T12:09:33.133Z,11.27
2023-01-21T12:20:12.539Z,9.77
2023-01-21T12:25:29.334Z,10.33
2023-01-21T12:30:41.777Z,10.00
2023-01-21T12:35:43.302Z,10.00
2023-01-21T12:40:47.897Z,8.90
2023-01-21T12:45:53.293Z,11.03
2023-01-21T12:50:56.826Z,10.07
2023-01-21T12:56:18.942Z,11.10
2023-01-21T13:01:37.028Z,10.60
2023-01-21T13:06:53.278Z,9.10
2023-01-21T13:11:57.957Z,10.17
2023-01-21T13:17:02.642Z,12.60
2023-01-21T13:22:09.620Z,9.97
2023-01-21T13:27:17.884Z,10.30
2023-01-21T13:32:29.598Z,9.30
2023-01-21T13:37:34.768Z,10.43
2023-01-21T13:42:40.544Z,11.00
2023-01-21T13:48:02.389Z,10.90
2023-01-21T13:53:17.585Z,11.37
2023-01-21T13:58:23.608Z,13.13
2023-01-21T14:03:31.234Z,11.40
2023-01-21T14:08:34.679Z,12.23
2023-01-21T14:14:12.203Z,11.50
2023-01-21T14:25:57.150Z,10.30
2023-01-21T14:31:02.974Z,11.20
2023-01-21T14:36:07.355Z,9.13
2023-01-21T14:41:09.496Z,10.67
2023-01-21T14:46:30.240Z,8.80
2023-01-21T14:51:31.837Z,9.17
2023-01-21T14:56:33.551Z,9.93
2023-01-21T15:01:38.803Z,10.93
2023-01-21T15:06:40.284Z,10.57
2023-01-21T15:11:42.419Z,11.80
2023-01-21T15:16:43.513Z,11.70
2023-01-21T15:21:46.403Z,7.97
2023-01-21T15:27:14.005Z,5.47
2023-01-21T15:32:30.482Z,4.43
2023-01-21T15:37:31.475Z,4.80
2023-01-21T15:42:42.234Z,4.17
2023-01-21T15:48:02.981Z,4.13
2023-01-21T15:53:43.084Z,5.37
2023-01-21T15:58:52.271Z,3.90
2023-01-21T16:04:08.572Z,4.90
2023-01-21T16:09:09.532Z,5.10
2023-01-21T16:14:21.277Z,4.60
2023-01-21T16:19:21.924Z,4.00
2023-01-21T16:24:25.092Z,5.10
2023-01-21T16:29:25.061Z,4.27
2023-01-21T16:34:39.902Z,4.97
2023-01-21T16:39:38.584Z,5.40
2023-01-21T16:44:38.747Z,5.43
2023-01-21T16:49:37.481Z,6.90
2023-01-21T16:54:36.077Z,6.87
2023-01-21T16:59:42.160Z,6.80
2023-01-21T17:04:40.367Z,6.20
2023-01-21T17:09:39.168Z,5.97
2023-01-21T17:14:40.215Z,6.23
2023-01-21T17:19:41.272Z,5.23
2023-01-21T17:24:44.266Z,8.27
2023-01-21T17:29:45.325Z,8.40
2023-01-21T17:34:44.316Z,7.50
2023-01-21T17:40:01.156Z,6.70
2023-01-21T17:45:04.825Z,9.07
2023-01-21T17:50:09.589Z,7.83
2023-01-21T17:55:25.970Z,7.47
2023-01-21T18:00:43.537Z,7.87
2023-01-21T18:05:43.555Z,7.53
2023-01-21T18:10:42.517Z,7.60
2023-01-21T18:15:43.369Z,8.20
2023-01-21T18:20:41.592Z,8.97
2023-01-21T18:25:40.985Z,7.60
2023-01-21T18:30:39.555Z,8.03
2023-01-21T18:35:39.817Z,7.40
2023-01-21T18:40:38.291Z,8.60
2023-01-21T18:45:36.875Z,7.13
2023-01-21T18:50:35.394Z,5.80
2023-01-21T18:55:35.647Z,5.87
2023-01-21T19:00:35.061Z,4.20
2023-01-21T19:05:38.455Z,4.37
2023-01-21T19:10:38.598Z,5.53
2023-01-21T19:15:37.355Z,3.43
2023-01-21T19:20:40.212Z,5.90
2023-01-21T19:25:39.747Z,3.93
2023-01-21T19:30:39.009Z,4.30
2023-01-21T19:35:39.799Z,4.37
2023-01-21T19:40:39.319Z,4.90
2023-01-21T19:45:37.811Z,4.67
2023-01-21T19:50:36.313Z,3.80
2023-01-21T19:55:37.270Z,4.50
2023-01-21T20:00:37.666Z,4.47
2023-01-21T20:05:35.947Z,4.30
2023-01-21T20:10:34.439Z,4.30
2023-01-21T20:15:35.460Z,3.00
2023-01-21T20:20:36.044Z,6.03
2023-01-21T20:25:38.167Z,7.30
2023-01-21T20:30:36.704Z,6.13
2023-01-21T20:35:36.648Z,7.30
2023-01-21T20:40:35.756Z,6.50
2023-01-21T20:45:44.709Z,6.63
2023-01-21T20:50:44.662Z,5.50
2023-01-21T20:55:44.898Z,5.00
2023-01-21T21:00:45.199Z,5.50
2023-01-21T21:05:45.825Z,5.30
2023-01-21T21:10:44.431Z,5.30
2023-01-21T21:15:46.406Z,5.13
2023-01-21T21:20:46.423Z,3.90
2023-01-21T21:25:45.934Z,4.43
2023-01-21T21:30:45.047Z,3.83
2023-01-21T21:35:44.641Z,4.77
2023-01-21T21:40:48.434Z,4.23
2023-01-21T21:46:00.801Z,4.97
2023-01-21T21:51:00.553Z,4.00
2023-01-21T21:56:04.355Z,4.83
2023-01-21T22:07:52.388Z,4.40
2023-01-21T22:12:52.250Z,5.30
2023-01-21T22:17:50.440Z,4.70
2023-01-21T22:22:48.903Z,4.40
2023-01-21T22:27:47.611Z,4.10
2023-01-21T22:32:47.467Z,3.90
2023-01-21T22:37:45.986Z,5.30
2023-01-21T22:42:44.467Z,4.20
2023-01-21T22:47:42.982Z,2.87
2023-01-21T22:52:42.841Z,3.80
2023-01-21T22:57:41.796Z,3.90
2023-01-21T23:02:40.261Z,2.97
2023-01-21T23:07:38.744Z,3.73
2023-01-21T23:12:38.640Z,3.27
2023-01-21T23:17:37.185Z,3.10
2023-01-21T23:22:36.274Z,3.50
2023-01-21T23:27:35.158Z,3.80
2023-01-21T23:32:34.719Z,3.53
2023-01-21T23:37:33.252Z,4.77
2023-01-21T23:42:31.723Z,3.70
2023-01-21T23:47:30.612Z,3.17
2023-01-21T23:52:30.468Z,4.03
2023-01-21T23:57:28.972Z,3.50
